Sheyenne, North Dakota
Current Conditions -  °F | °C
As of 3:35 PM on Saturday 20 Dec 2014 (Local Time) from KDVL Reporting Station
Overcast Overcast  
Wind Chill: -10°   Ceiling: 200
Heat Index: -4°   Visibility: 1.2mi
Dew Point: -8°   Wind: 12mph
Humidity: 74%   Direction: 150°SSE
Pressure: 29.84"   Gusts: NA
Location:  47.83°N, 99.12°W
Report Text: KDVL 202135Z AUTO 15010KT 1 1/4SM OVC002 M04/M08 A2984 RMK AO1
Loading
Personal Weather Stations






























Interactive Weather Map New forecast layout! Learn more

10-Day Weather Forecast

Advertisements
Track Severe Weather on mobile